createdAt,value
2019-03-31T00:01:50.834Z,174.93
2019-03-31T00:04:21.906Z,169.33
2019-03-31T00:06:52.714Z,154.87
2019-03-31T00:09:24.105Z,160.30
2019-03-31T00:11:55.323Z,171.40
2019-03-31T00:14:26.422Z,173.00
2019-03-31T00:16:57.835Z,195.03
2019-03-31T00:19:29.007Z,197.70
2019-03-31T00:22:00.163Z,209.63
2019-03-31T00:24:31.685Z,203.17
2019-03-31T00:27:02.443Z,199.20
2019-03-31T00:29:33.551Z,193.43
2019-03-31T00:32:04.671Z,181.97
2019-03-31T00:34:36.380Z,177.23
2019-03-31T00:37:07.846Z,178.33
2019-03-31T00:39:38.944Z,172.17
2019-03-31T00:42:10.235Z,173.97
2019-03-31T00:44:41.113Z,181.77
2019-03-31T00:47:12.331Z,181.20
2019-03-31T00:49:43.153Z,173.60
2019-03-31T00:52:13.996Z,180.50
2019-03-31T00:54:45.242Z,178.83
2019-03-31T00:57:16.024Z,177.63
2019-03-31T00:59:46.955Z,184.40
2019-03-31T01:02:19.346Z,175.50
2019-03-31T01:04:53.388Z,183.27
2019-03-31T01:07:24.529Z,163.87
2019-03-31T01:09:56.469Z,181.23
2019-03-31T01:12:27.221Z,160.23
2019-03-31T01:14:58.009Z,173.17
2019-03-31T01:17:28.931Z,176.53
2019-03-31T01:19:59.997Z,185.43
2019-03-31T01:22:31.005Z,182.10
2019-03-31T01:25:02.223Z,180.70
2019-03-31T01:27:33.382Z,162.23
2019-03-31T01:30:08.499Z,153.87
2019-03-31T01:32:39.510Z,154.83
2019-03-31T01:35:10.910Z,148.33
2019-03-31T01:37:42.287Z,142.47
2019-03-31T01:40:14.616Z,149.67
2019-03-31T01:42:45.865Z,131.10
2019-03-31T01:45:16.626Z,124.13
2019-03-31T01:47:47.936Z,119.10
2019-03-31T01:50:19.011Z,124.50
2019-03-31T01:52:49.731Z,122.63
2019-03-31T01:55:20.814Z,119.43
2019-03-31T01:57:52.312Z,111.77
2019-03-31T02:00:25.207Z,117.50
2019-03-31T02:02:57.168Z,111.47
2019-03-31T02:05:28.050Z,116.60
2019-03-31T02:07:59.493Z,99.87
2019-03-31T02:10:30.642Z,102.33
2019-03-31T02:13:01.919Z,98.37
2019-03-31T02:15:33.362Z,90.73
2019-03-31T02:18:04.944Z,93.73
2019-03-31T02:20:37.368Z,85.20
2019-03-31T02:23:08.665Z,92.53
2019-03-31T02:25:39.426Z,88.00
2019-03-31T02:28:10.570Z,84.47
2019-03-31T02:30:42.243Z,86.67
2019-03-31T02:33:13.749Z,84.03
2019-03-31T02:35:44.797Z,80.83
2019-03-31T02:38:16.163Z,79.20
2019-03-31T02:40:47.050Z,99.67
2019-03-31T02:43:18.044Z,92.67
2019-03-31T02:45:51.444Z,82.30
2019-03-31T02:48:23.829Z,83.27
2019-03-31T02:50:55.342Z,83.27
2019-03-31T02:53:26.436Z,82.90
2019-03-31T02:55:57.410Z,86.57
2019-03-31T02:58:28.024Z,86.07
2019-03-31T03:00:58.702Z,87.83
2019-03-31T03:03:29.407Z,87.87
2019-03-31T03:06:01.105Z,89.27
2019-03-31T03:08:31.839Z,93.10
2019-03-31T03:11:03.147Z,95.13
2019-03-31T03:13:35.600Z,94.60
2019-03-31T03:16:08.901Z,100.03
2019-03-31T03:18:40.228Z,97.50
2019-03-31T03:21:10.771Z,91.03
2019-03-31T03:23:41.652Z,66.23
2019-03-31T03:26:12.955Z,60.00
2019-03-31T03:28:44.647Z,51.80
2019-03-31T03:31:16.799Z,47.20
2019-03-31T03:33:49.090Z,47.67
2019-03-31T03:36:19.936Z,43.73
2019-03-31T03:38:51.251Z,48.20
2019-03-31T03:41:22.188Z,46.10
2019-03-31T03:43:57.071Z,49.77
2019-03-31T03:46:26.241Z,36.57
2019-03-31T03:48:57.264Z,44.90
2019-03-31T03:51:29.213Z,41.50
2019-03-31T03:54:00.779Z,40.60
2019-03-31T03:56:31.987Z,39.50
2019-03-31T03:59:02.980Z,41.23
2019-03-31T04:01:33.743Z,43.13
2019-03-31T04:04:04.911Z,40.10
2019-03-31T04:06:36.236Z,43.60
2019-03-31T04:09:07.256Z,43.17
2019-03-31T04:11:38.418Z,37.93
2019-03-31T04:14:09.841Z,41.50
2019-03-31T04:16:41.272Z,50.03
2019-03-31T04:19:12.528Z,44.83
2019-03-31T04:21:43.705Z,41.53
2019-03-31T04:24:14.625Z,37.90
2019-03-31T04:26:45.866Z,43.90
2019-03-31T04:29:17.272Z,48.93
2019-03-31T04:31:48.129Z,45.97
2019-03-31T04:34:19.870Z,43.70
2019-03-31T04:36:50.815Z,36.03
2019-03-31T04:39:22.023Z,41.15
2019-03-31T04:41:53.266Z,43.00
2019-03-31T04:44:25.075Z,48.17
2019-03-31T04:46:56.432Z,43.27
2019-03-31T04:49:28.120Z,43.17
2019-03-31T04:51:59.798Z,37.60
2019-03-31T04:54:32.124Z,40.75
2019-03-31T04:57:04.678Z,47.13
2019-03-31T04:59:35.719Z,40.97
2019-03-31T05:02:06.483Z,41.50
2019-03-31T05:04:37.793Z,42.87
2019-03-31T05:07:08.963Z,39.80
2019-03-31T05:09:39.930Z,40.05
2019-03-31T05:12:11.398Z,43.77
2019-03-31T05:14:43.219Z,44.93
2019-03-31T05:17:14.568Z,34.73
2019-03-31T05:19:45.980Z,40.85
2019-03-31T05:22:17.299Z,36.75
2019-03-31T05:24:48.600Z,39.38
2019-03-31T05:27:19.298Z,107.50
2019-03-31T05:29:51.733Z,52.67
2019-03-31T05:32:22.616Z,40.90
2019-03-31T05:34:54.069Z,40.50
2019-03-31T05:37:24.926Z,37.83
2019-03-31T05:39:55.750Z,38.37
2019-03-31T05:42:27.019Z,47.77
2019-03-31T05:44:58.230Z,41.53
2019-03-31T05:47:30.394Z,39.77
2019-03-31T05:50:01.706Z,40.00
2019-03-31T05:52:32.733Z,44.23
2019-03-31T05:55:04.270Z,43.53
2019-03-31T05:57:35.674Z,39.97
2019-03-31T06:00:08.184Z,37.17
2019-03-31T06:02:39.139Z,34.87
2019-03-31T06:05:10.381Z,36.30
2019-03-31T06:07:41.123Z,34.20
2019-03-31T06:10:12.343Z,36.15
2019-03-31T06:12:43.073Z,35.53
2019-03-31T06:15:13.919Z,33.90
2019-03-31T06:17:45.083Z,32.13
2019-03-31T06:20:16.640Z,32.90
2019-03-31T06:22:47.353Z,37.73
2019-03-31T06:25:18.131Z,35.55
2019-03-31T06:27:49.229Z,32.90
2019-03-31T06:30:20.276Z,31.23
2019-03-31T06:32:51.592Z,31.77
2019-03-31T06:35:22.824Z,33.80
2019-03-31T06:37:53.811Z,33.80
2019-03-31T06:40:24.747Z,33.67
2019-03-31T06:42:55.753Z,32.95
2019-03-31T06:45:26.306Z,29.73
2019-03-31T06:47:57.273Z,30.82
2019-03-31T06:50:28.472Z,31.27
2019-03-31T06:53:00.073Z,33.10
2019-03-31T06:55:31.106Z,35.00
2019-03-31T06:58:21.712Z,31.25
2019-03-31T07:00:52.473Z,38.78
2019-03-31T07:03:23.168Z,35.83
2019-03-31T07:05:54.226Z,34.38
2019-03-31T07:08:24.991Z,34.92
2019-03-31T07:10:55.639Z,40.73
2019-03-31T07:13:26.453Z,35.85
2019-03-31T07:15:58.215Z,36.83
2019-03-31T07:18:29.683Z,39.42
2019-03-31T07:21:00.820Z,36.58
2019-03-31T07:23:31.587Z,44.13
2019-03-31T07:26:02.222Z,41.68
2019-03-31T07:28:33.206Z,41.83
2019-03-31T07:31:04.269Z,35.85
2019-03-31T07:33:35.184Z,48.73
2019-03-31T07:36:06.386Z,43.20
2019-03-31T07:38:39.327Z,36.13
2019-03-31T07:41:12.959Z,36.80
2019-03-31T07:43:42.849Z,38.02
2019-03-31T07:46:13.788Z,41.92
2019-03-31T07:48:45.603Z,39.98
2019-03-31T07:51:16.481Z,44.80
2019-03-31T07:53:47.364Z,35.73
2019-03-31T07:56:18.524Z,37.38
2019-03-31T07:58:49.499Z,49.25
2019-03-31T08:01:20.509Z,49.18
2019-03-31T08:03:51.469Z,39.38
2019-03-31T08:06:22.560Z,35.65
2019-03-31T08:08:53.591Z,37.93
2019-03-31T08:11:24.410Z,40.03
2019-03-31T08:13:55.504Z,48.98
2019-03-31T08:16:26.066Z,41.92
2019-03-31T08:18:56.823Z,39.40
2019-03-31T08:21:27.366Z,39.75
2019-03-31T08:23:58.094Z,44.75
2019-03-31T08:26:28.781Z,32.90
2019-03-31T08:28:59.453Z,35.60
2019-03-31T08:31:29.886Z,40.60
2019-03-31T08:34:00.702Z,33.42
2019-03-31T08:36:35.106Z,34.18
2019-03-31T08:39:06.290Z,37.60
2019-03-31T08:41:36.902Z,38.70
2019-03-31T08:44:07.542Z,34.45
2019-03-31T08:46:38.134Z,36.08
2019-03-31T08:49:08.649Z,40.30
2019-03-31T08:51:39.541Z,35.05
2019-03-31T08:54:10.101Z,38.75
2019-03-31T08:56:40.823Z,43.50
2019-03-31T08:59:11.302Z,42.58
2019-03-31T09:01:43.845Z,40.05
2019-03-31T09:04:14.325Z,41.23
2019-03-31T09:06:45.142Z,43.23
2019-03-31T09:09:15.688Z,46.18
2019-03-31T09:11:46.361Z,41.30
2019-03-31T09:14:16.816Z,37.30
2019-03-31T09:16:47.320Z,43.35
2019-03-31T09:19:17.941Z,37.53
2019-03-31T09:21:49.020Z,36.90
2019-03-31T09:24:20.548Z,38.42
2019-03-31T09:26:52.114Z,38.75
2019-03-31T09:29:23.291Z,36.93
2019-03-31T09:31:55.327Z,38.65
2019-03-31T09:34:26.343Z,37.42
2019-03-31T09:36:59.029Z,38.40
2019-03-31T09:39:30.260Z,39.80
2019-03-31T09:42:01.356Z,34.05
2019-03-31T09:44:32.397Z,39.18
2019-03-31T09:47:03.303Z,44.27
2019-03-31T09:49:34.606Z,36.85
2019-03-31T09:52:06.082Z,38.88
2019-03-31T09:54:38.040Z,37.70
2019-03-31T09:57:09.319Z,34.08
2019-03-31T09:59:40.312Z,32.65
2019-03-31T10:02:11.435Z,29.15
2019-03-31T10:04:42.461Z,33.92
2019-03-31T10:07:14.212Z,29.98
2019-03-31T10:09:45.768Z,30.30
2019-03-31T10:12:17.338Z,28.90
2019-03-31T10:14:48.413Z,30.02
2019-03-31T10:17:19.544Z,25.57
2019-03-31T10:19:50.510Z,25.82
2019-03-31T10:22:22.084Z,25.35
2019-03-31T10:24:53.229Z,26.17
2019-03-31T10:27:24.348Z,22.62
2019-03-31T10:29:55.585Z,21.75
2019-03-31T10:32:26.715Z,22.60
2019-03-31T10:34:58.063Z,21.62
2019-03-31T10:37:29.642Z,20.70
2019-03-31T10:40:00.555Z,17.90
2019-03-31T10:42:31.688Z,19.15
2019-03-31T10:45:02.355Z,20.23
2019-03-31T10:47:33.794Z,19.50
2019-03-31T10:50:06.745Z,17.25
2019-03-31T10:52:38.120Z,18.10
2019-03-31T10:55:09.063Z,16.73
2019-03-31T10:57:40.349Z,22.10
2019-03-31T11:00:11.736Z,20.70
2019-03-31T11:02:43.192Z,19.05
2019-03-31T11:05:14.346Z,17.15
2019-03-31T11:07:45.429Z,16.02
2019-03-31T11:10:16.289Z,25.25
2019-03-31T11:12:47.024Z,14.43
2019-03-31T11:15:18.581Z,19.23
2019-03-31T11:17:50.066Z,15.53
2019-03-31T11:20:21.415Z,13.70
2019-03-31T11:22:54.420Z,16.02
2019-03-31T11:25:29.234Z,16.55
2019-03-31T11:27:59.272Z,14.50
2019-03-31T11:30:30.209Z,18.40
2019-03-31T11:33:01.377Z,17.98
2019-03-31T11:35:32.436Z,13.18
2019-03-31T11:38:03.343Z,11.22
2019-03-31T11:40:34.109Z,13.25
2019-03-31T11:43:05.389Z,18.48
2019-03-31T11:45:36.861Z,13.35
2019-03-31T11:48:08.070Z,15.58
2019-03-31T11:50:39.431Z,18.27
2019-03-31T11:53:11.439Z,17.02
2019-03-31T11:55:42.329Z,13.70
2019-03-31T11:58:13.904Z,13.35
2019-03-31T12:00:46.429Z,15.45
2019-03-31T12:03:17.688Z,15.78
2019-03-31T12:05:48.628Z,9.93
2019-03-31T12:08:19.833Z,10.13
2019-03-31T12:10:51.531Z,11.25
2019-03-31T12:13:22.429Z,9.40
2019-03-31T12:15:53.172Z,10.28
2019-03-31T12:18:24.109Z,6.67
2019-03-31T12:20:55.030Z,11.05
2019-03-31T12:23:26.787Z,10.43
2019-03-31T12:25:57.954Z,9.23
2019-03-31T12:28:28.841Z,15.53
2019-03-31T12:30:59.766Z,11.50
2019-03-31T12:33:31.170Z,8.23
2019-03-31T12:36:02.713Z,9.40
2019-03-31T12:38:33.862Z,8.93
2019-03-31T12:41:05.843Z,6.85
2019-03-31T12:43:37.336Z,6.65
2019-03-31T12:46:08.280Z,7.47
2019-03-31T12:48:39.844Z,11.12
2019-03-31T12:51:11.231Z,9.10
2019-03-31T12:53:42.400Z,13.93
2019-03-31T12:56:13.530Z,11.22
2019-03-31T12:58:44.904Z,8.50
2019-03-31T13:01:15.851Z,8.15
2019-03-31T13:03:47.284Z,8.05
2019-03-31T13:06:18.335Z,9.53
2019-03-31T13:08:49.113Z,5.85
2019-03-31T13:11:20.303Z,7.92
2019-03-31T13:13:51.286Z,5.30
2019-03-31T13:16:22.441Z,8.88
2019-03-31T13:18:53.432Z,4.97
2019-03-31T13:21:24.386Z,5.28
2019-03-31T13:23:56.388Z,6.05
2019-03-31T13:26:27.262Z,7.87
2019-03-31T13:28:58.523Z,7.15
2019-03-31T13:31:29.586Z,6.47
2019-03-31T13:34:01.002Z,11.00
2019-03-31T13:36:32.166Z,7.22
2019-03-31T13:39:03.087Z,7.40
2019-03-31T13:41:34.821Z,10.32
2019-03-31T13:44:05.659Z,10.55
2019-03-31T13:46:36.707Z,6.08
2019-03-31T13:49:07.403Z,8.88
2019-03-31T13:51:38.002Z,11.22
2019-03-31T13:54:08.635Z,9.98
2019-03-31T13:56:40.022Z,7.90
2019-03-31T13:59:10.870Z,6.50
2019-03-31T14:01:41.835Z,6.62
2019-03-31T14:04:13.016Z,10.30
2019-03-31T14:06:43.845Z,8.33
2019-03-31T14:09:14.645Z,8.85
2019-03-31T14:11:48.435Z,6.70
2019-03-31T14:14:17.363Z,11.78
2019-03-31T14:16:48.013Z,11.22
2019-03-31T14:19:18.717Z,10.70
2019-03-31T14:21:49.326Z,11.30
2019-03-31T14:24:20.123Z,10.70
2019-03-31T14:26:50.606Z,8.93
2019-03-31T14:29:21.447Z,8.45
2019-03-31T14:31:52.657Z,7.58
2019-03-31T14:34:23.044Z,7.25
2019-03-31T14:36:55.926Z,12.63
2019-03-31T14:39:26.677Z,7.65
2019-03-31T14:42:00.174Z,7.35
2019-03-31T14:44:30.845Z,9.63
2019-03-31T14:47:01.519Z,8.95
2019-03-31T14:49:32.205Z,7.20
2019-03-31T14:52:02.859Z,10.63
2019-03-31T14:54:33.246Z,8.58
2019-03-31T14:57:03.669Z,8.95
2019-03-31T14:59:34.385Z,10.18
2019-03-31T15:02:04.827Z,12.90
2019-03-31T15:04:35.629Z,11.30
2019-03-31T15:07:07.003Z,10.78
2019-03-31T15:09:37.451Z,6.17
2019-03-31T15:12:08.316Z,5.30
2019-03-31T15:14:38.764Z,5.33
2019-03-31T15:17:09.403Z,9.80
2019-03-31T15:19:40.143Z,8.80
2019-03-31T15:22:10.865Z,5.58
2019-03-31T15:24:41.365Z,7.78
2019-03-31T15:27:11.826Z,6.92
2019-03-31T15:29:42.430Z,9.20
2019-03-31T15:32:12.913Z,9.83
2019-03-31T15:34:44.431Z,7.87
2019-03-31T15:37:14.893Z,10.70
2019-03-31T15:39:45.713Z,6.55
2019-03-31T15:42:16.463Z,7.85
2019-03-31T15:44:47.293Z,6.33
2019-03-31T15:47:17.896Z,3.00
2019-03-31T15:49:48.547Z,5.42
2019-03-31T15:52:19.019Z,6.42
2019-03-31T15:54:49.884Z,9.20
2019-03-31T15:57:20.524Z,4.70
2019-03-31T15:59:53.429Z,8.08
2019-03-31T16:02:25.455Z,5.12
2019-03-31T16:04:55.913Z,24.10
2019-03-31T16:07:29.075Z,11.05
2019-03-31T16:10:02.337Z,28.92
2019-03-31T16:12:35.368Z,4.80
2019-03-31T16:15:06.099Z,7.83
2019-03-31T16:17:36.571Z,8.18
2019-03-31T16:20:07.369Z,9.45
2019-03-31T16:22:37.879Z,10.08
2019-03-31T16:25:10.087Z,11.40
2019-03-31T16:27:40.585Z,11.50
2019-03-31T16:30:11.086Z,6.45
2019-03-31T16:32:41.665Z,23.40
2019-03-31T16:35:12.277Z,5.30
2019-03-31T16:37:44.035Z,10.28
2019-03-31T16:40:14.577Z,44.20
2019-03-31T16:42:45.194Z,23.57
2019-03-31T16:45:15.669Z,162.00
2019-03-31T16:47:46.805Z,34.33
2019-03-31T16:50:17.645Z,17.98
2019-03-31T16:52:52.503Z,55.73
2019-03-31T16:55:21.776Z,267.93
2019-03-31T16:57:52.251Z,33.10
2019-03-31T17:00:41.547Z,8.85
2019-03-31T17:03:26.718Z,32.42
2019-03-31T17:06:04.057Z,26.20
2019-03-31T17:08:34.679Z,25.62
2019-03-31T17:11:05.579Z,11.83
2019-03-31T17:13:36.160Z,31.15
2019-03-31T17:16:06.563Z,14.25
2019-03-31T17:18:37.104Z,8.20
2019-03-31T17:21:07.674Z,14.75
2019-03-31T17:23:38.076Z,12.28
2019-03-31T17:29:07.910Z,11.60
2019-03-31T17:31:38.805Z,36.42
2019-03-31T17:34:11.002Z,19.62
2019-03-31T17:36:42.640Z,16.02
2019-03-31T17:39:13.442Z,20.35
2019-03-31T17:41:44.139Z,17.80
2019-03-31T17:44:14.725Z,21.95
2019-03-31T17:46:45.547Z,24.37
2019-03-31T17:49:16.291Z,20.10
2019-03-31T17:51:47.505Z,181.90
2019-03-31T17:54:22.638Z,60.70
2019-03-31T17:57:12.662Z,10.63
2019-03-31T17:59:51.035Z,29.72
2019-03-31T18:02:21.419Z,86.12
2019-03-31T18:04:51.961Z,100.45
2019-03-31T18:07:22.531Z,79.63
2019-03-31T18:09:59.086Z,22.52
2019-03-31T18:12:29.866Z,18.52
2019-03-31T18:15:01.020Z,20.97
2019-03-31T18:17:48.405Z,27.22
2019-03-31T18:20:18.852Z,16.57
2019-03-31T18:25:19.148Z,320.57
2019-03-31T18:27:50.972Z,49.50
2019-03-31T18:30:22.001Z,29.63
2019-03-31T18:32:52.445Z,76.60
2019-03-31T18:35:22.824Z,43.40
2019-03-31T18:37:53.642Z,68.07
2019-03-31T18:40:34.730Z,38.67
2019-03-31T18:42:56.439Z,28.20
2019-03-31T18:45:27.095Z,29.57
2019-03-31T18:48:00.896Z,31.80
2019-03-31T18:50:29.988Z,51.97
2019-03-31T18:53:02.124Z,72.17
2019-03-31T18:55:34.334Z,54.33
2019-03-31T18:58:06.425Z,22.27
2019-03-31T19:00:38.568Z,26.17
2019-03-31T19:03:10.913Z,26.03
2019-03-31T19:05:43.013Z,26.50
2019-03-31T19:08:15.583Z,31.60
2019-03-31T19:10:49.663Z,23.27
2019-03-31T19:13:29.701Z,23.90
2019-03-31T19:16:01.735Z,16.77
2019-03-31T19:18:34.164Z,17.60
2019-03-31T19:21:10.937Z,18.93
2019-03-31T19:23:40.231Z,23.10
2019-03-31T19:26:12.364Z,19.93
2019-03-31T19:28:44.476Z,20.33
2019-03-31T19:31:16.935Z,27.70
2019-03-31T19:33:49.269Z,18.80
2019-03-31T19:36:26.040Z,24.97
2019-03-31T19:39:11.549Z,17.50
2019-03-31T19:41:48.976Z,15.00
2019-03-31T19:44:33.449Z,16.27
2019-03-31T19:47:45.137Z,15.90
2019-03-31T19:50:37.305Z,18.57
2019-03-31T19:53:17.785Z,16.53
2019-03-31T19:55:50.206Z,12.63
2019-03-31T19:58:22.847Z,13.80
2019-03-31T20:00:55.479Z,16.37
2019-03-31T20:03:28.345Z,16.43
2019-03-31T20:06:00.487Z,15.57
2019-03-31T20:08:33.087Z,15.87
2019-03-31T20:11:12.263Z,14.30
2019-03-31T20:13:50.206Z,16.60
2019-03-31T20:16:24.847Z,13.93
2019-03-31T20:18:57.526Z,24.07
2019-03-31T20:21:32.319Z,25.50
2019-03-31T20:24:04.528Z,19.40
2019-03-31T20:26:37.341Z,25.43
2019-03-31T20:29:10.006Z,33.30
2019-03-31T20:31:42.286Z,28.93
2019-03-31T20:34:15.246Z,20.90
2019-03-31T20:36:49.128Z,18.17
2019-03-31T20:39:21.406Z,24.37
2019-03-31T20:41:54.206Z,19.80
2019-03-31T20:44:26.405Z,19.83
2019-03-31T20:46:57.039Z,26.60
2019-03-31T20:49:27.968Z,22.30
2019-03-31T20:52:00.825Z,21.47
2019-03-31T20:54:33.221Z,20.30
2019-03-31T20:57:05.064Z,19.00
2019-03-31T20:59:36.138Z,26.27
2019-03-31T21:02:09.025Z,19.37
2019-03-31T21:04:40.455Z,15.37
2019-03-31T21:07:11.084Z,17.10
2019-03-31T21:09:45.038Z,18.30
2019-03-31T21:12:16.066Z,20.57
2019-03-31T21:14:47.538Z,21.10
2019-03-31T21:17:20.226Z,16.70
2019-03-31T21:19:51.770Z,19.33
2019-03-31T21:22:23.546Z,19.53
2019-03-31T21:24:55.731Z,18.80
2019-03-31T21:27:27.447Z,15.63
2019-03-31T21:29:58.343Z,15.70
2019-03-31T21:32:30.365Z,12.87
2019-03-31T21:35:02.564Z,15.73
2019-03-31T21:37:34.025Z,16.57
2019-03-31T21:40:07.272Z,17.70
2019-03-31T21:42:38.844Z,15.47
2019-03-31T21:45:11.564Z,19.00
2019-03-31T21:47:43.665Z,14.00
2019-03-31T21:50:14.568Z,13.50
2019-03-31T21:52:45.500Z,13.53
2019-03-31T21:55:16.289Z,16.17
2019-03-31T21:57:47.489Z,17.80
2019-03-31T22:00:20.164Z,14.60
2019-03-31T22:02:51.472Z,12.70
2019-03-31T22:05:22.371Z,12.40
2019-03-31T22:07:53.325Z,13.07
2019-03-31T22:10:24.911Z,13.67
2019-03-31T22:12:55.743Z,11.67
2019-03-31T22:15:27.130Z,15.37
2019-03-31T22:17:58.111Z,13.67
2019-03-31T22:20:28.973Z,15.43
2019-03-31T22:23:00.023Z,23.40
2019-03-31T22:25:31.112Z,17.57
2019-03-31T22:28:01.936Z,20.57
2019-03-31T22:30:35.430Z,23.60
2019-03-31T22:33:06.391Z,26.40
2019-03-31T22:35:38.353Z,25.03
2019-03-31T22:38:09.438Z,23.45
2019-03-31T22:40:41.002Z,26.90
2019-03-31T22:43:11.999Z,27.53
2019-03-31T22:45:43.338Z,29.87
2019-03-31T22:48:14.627Z,27.87
2019-03-31T22:50:46.204Z,32.83
2019-03-31T22:53:17.311Z,27.97
2019-03-31T22:55:48.586Z,30.40
2019-03-31T22:58:20.152Z,27.00
2019-03-31T23:00:51.306Z,33.77
2019-03-31T23:03:21.751Z,29.67
2019-03-31T23:05:53.785Z,30.13
2019-03-31T23:08:25.141Z,31.93
2019-03-31T23:10:55.947Z,29.43
2019-03-31T23:13:27.503Z,25.43
2019-03-31T23:15:58.819Z,25.17
2019-03-31T23:18:29.866Z,27.40
2019-03-31T23:21:00.777Z,28.33
2019-03-31T23:23:31.809Z,32.70
2019-03-31T23:26:02.699Z,34.07
2019-03-31T23:28:33.245Z,32.80
2019-03-31T23:31:03.890Z,31.60
2019-03-31T23:33:35.105Z,38.07
2019-03-31T23:36:06.064Z,36.97
2019-03-31T23:38:37.143Z,33.97
2019-03-31T23:41:08.677Z,91.90
2019-03-31T23:43:39.377Z,104.70
2019-03-31T23:46:10.485Z,154.70
2019-03-31T23:48:42.303Z,186.80
2019-03-31T23:51:13.347Z,122.67
2019-03-31T23:53:44.506Z,102.23
2019-03-31T23:56:15.350Z,212.40
2019-03-31T23:58:46.538Z,178.27
